sensor_id;sensor_type;location;lat;lon;timestamp;P1;durP1;ratioP1;P2;durP2;ratioP2
1320;SDS011;653;51.480;11.992;2023-12-20T00:00:18;7.67;;;5.07;;
1320;SDS011;653;51.480;11.992;2023-12-20T00:02:44;7.43;;;5.60;;
1320;SDS011;653;51.480;11.992;2023-12-20T00:05:13;8.37;;;6.00;;
1320;SDS011;653;51.480;11.992;2023-12-20T00:07:40;8.67;;;6.93;;
1320;SDS011;653;51.480;11.992;2023-12-20T00:10:07;6.50;;;4.93;;
1320;SDS011;653;51.480;11.992;2023-12-20T00:12:33;7.23;;;5.10;;
1320;SDS011;653;51.480;11.992;2023-12-20T00:14:58;8.30;;;6.23;;
1320;SDS011;653;51.480;11.992;2023-12-20T00:17:25;6.43;;;5.17;;
1320;SDS011;653;51.480;11.992;2023-12-20T00:19:52;5.43;;;4.00;;
1320;SDS011;653;51.480;11.992;2023-12-20T00:22:18;8.10;;;5.47;;
1320;SDS011;653;51.480;11.992;2023-12-20T00:24:45;6.77;;;4.63;;
1320;SDS011;653;51.480;11.992;2023-12-20T00:27:10;8.00;;;5.93;;
1320;SDS011;653;51.480;11.992;2023-12-20T00:29:37;8.70;;;6.27;;
1320;SDS011;653;51.480;11.992;2023-12-20T00:32:03;9.00;;;5.90;;
1320;SDS011;653;51.480;11.992;2023-12-20T00:34:31;7.20;;;4.40;;
1320;SDS011;653;51.480;11.992;2023-12-20T00:36:57;8.37;;;5.13;;
1320;SDS011;653;51.480;11.992;2023-12-20T00:39:23;7.83;;;5.57;;
1320;SDS011;653;51.480;11.992;2023-12-20T00:41:50;7.73;;;5.20;;
1320;SDS011;653;51.480;11.992;2023-12-20T00:44:17;10.63;;;6.23;;
1320;SDS011;653;51.480;11.992;2023-12-20T00:46:43;8.20;;;6.00;;
1320;SDS011;653;51.480;11.992;2023-12-20T00:49:09;8.70;;;5.10;;
1320;SDS011;653;51.480;11.992;2023-12-20T00:51:36;7.33;;;5.63;;
1320;SDS011;653;51.480;11.992;2023-12-20T00:54:03;8.33;;;5.03;;
1320;SDS011;653;51.480;11.992;2023-12-20T00:56:29;9.03;;;6.20;;
1320;SDS011;653;51.480;11.992;2023-12-20T00:58:56;7.20;;;5.57;;
1320;SDS011;653;51.480;11.992;2023-12-20T01:01:21;8.07;;;5.27;;
1320;SDS011;653;51.480;11.992;2023-12-20T01:03:47;8.80;;;5.63;;
1320;SDS011;653;51.480;11.992;2023-12-20T01:06:14;8.20;;;5.60;;
1320;SDS011;653;51.480;11.992;2023-12-20T01:08:41;7.03;;;5.23;;
1320;SDS011;653;51.480;11.992;2023-12-20T01:11:08;6.67;;;4.73;;
1320;SDS011;653;51.480;11.992;2023-12-20T01:13:35;6.93;;;4.87;;
1320;SDS011;653;51.480;11.992;2023-12-20T01:16:02;11.80;;;5.00;;
1320;SDS011;653;51.480;11.992;2023-12-20T01:18:27;8.90;;;5.90;;
1320;SDS011;653;51.480;11.992;2023-12-20T01:20:53;7.23;;;5.73;;
1320;SDS011;653;51.480;11.992;2023-12-20T01:23:18;8.30;;;5.10;;
1320;SDS011;653;51.480;11.992;2023-12-20T01:25:45;8.20;;;5.10;;
1320;SDS011;653;51.480;11.992;2023-12-20T01:28:12;7.53;;;5.63;;
1320;SDS011;653;51.480;11.992;2023-12-20T01:30:39;8.40;;;6.07;;
1320;SDS011;653;51.480;11.992;2023-12-20T01:33:05;9.23;;;6.00;;
1320;SDS011;653;51.480;11.992;2023-12-20T01:35:30;7.53;;;6.13;;
1320;SDS011;653;51.480;11.992;2023-12-20T01:37:57;8.33;;;5.37;;
1320;SDS011;653;51.480;11.992;2023-12-20T01:40:24;7.47;;;5.53;;
1320;SDS011;653;51.480;11.992;2023-12-20T01:43:04;7.33;;;5.63;;
1320;SDS011;653;51.480;11.992;2023-12-20T01:45:35;7.97;;;6.13;;
1320;SDS011;653;51.480;11.992;2023-12-20T01:48:00;6.60;;;5.37;;
1320;SDS011;653;51.480;11.992;2023-12-20T01:50:29;7.13;;;5.30;;
1320;SDS011;653;51.480;11.992;2023-12-20T01:52:57;7.17;;;5.00;;
1320;SDS011;653;51.480;11.992;2023-12-20T01:55:25;7.40;;;5.23;;
1320;SDS011;653;51.480;11.992;2023-12-20T01:57:52;7.87;;;6.13;;
1320;SDS011;653;51.480;11.992;2023-12-20T02:00:19;9.63;;;6.70;;
1320;SDS011;653;51.480;11.992;2023-12-20T02:02:48;7.63;;;5.73;;
1320;SDS011;653;51.480;11.992;2023-12-20T02:05:16;8.53;;;6.03;;
1320;SDS011;653;51.480;11.992;2023-12-20T02:07:43;5.83;;;5.03;;
1320;SDS011;653;51.480;11.992;2023-12-20T02:10:10;9.40;;;5.60;;
1320;SDS011;653;51.480;11.992;2023-12-20T02:12:36;8.90;;;5.90;;
1320;SDS011;653;51.480;11.992;2023-12-20T02:15:01;5.93;;;4.93;;
1320;SDS011;653;51.480;11.992;2023-12-20T02:17:29;8.53;;;5.43;;
1320;SDS011;653;51.480;11.992;2023-12-20T02:19:55;9.13;;;6.20;;
1320;SDS011;653;51.480;11.992;2023-12-20T02:22:21;7.30;;;5.77;;
1320;SDS011;653;51.480;11.992;2023-12-20T02:24:47;7.70;;;5.73;;
1320;SDS011;653;51.480;11.992;2023-12-20T02:27:13;7.20;;;5.80;;
1320;SDS011;653;51.480;11.992;2023-12-20T02:29:40;9.40;;;5.40;;
1320;SDS011;653;51.480;11.992;2023-12-20T02:32:07;8.90;;;5.60;;
1320;SDS011;653;51.480;11.992;2023-12-20T02:34:33;8.47;;;5.57;;
1320;SDS011;653;51.480;11.992;2023-12-20T02:36:59;6.93;;;6.07;;
1320;SDS011;653;51.480;11.992;2023-12-20T02:39:24;10.90;;;6.70;;
1320;SDS011;653;51.480;11.992;2023-12-20T02:41:51;15.57;;;8.43;;
1320;SDS011;653;51.480;11.992;2023-12-20T02:44:17;9.13;;;6.50;;
1320;SDS011;653;51.480;11.992;2023-12-20T02:46:43;9.00;;;5.93;;
1320;SDS011;653;51.480;11.992;2023-12-20T02:49:09;8.00;;;5.57;;
1320;SDS011;653;51.480;11.992;2023-12-20T02:51:36;7.83;;;5.50;;
1320;SDS011;653;51.480;11.992;2023-12-20T02:54:03;9.43;;;6.70;;
1320;SDS011;653;51.480;11.992;2023-12-20T02:56:31;6.40;;;5.40;;
1320;SDS011;653;51.480;11.992;2023-12-20T02:58:59;7.70;;;6.13;;
1320;SDS011;653;51.480;11.992;2023-12-20T03:01:27;7.37;;;5.20;;
1320;SDS011;653;51.480;11.992;2023-12-20T03:03:54;9.70;;;6.60;;
1320;SDS011;653;51.480;11.992;2023-12-20T03:06:21;7.90;;;5.80;;
1320;SDS011;653;51.480;11.992;2023-12-20T03:08:46;7.37;;;5.47;;
1320;SDS011;653;51.480;11.992;2023-12-20T03:11:12;10.77;;;6.97;;
1320;SDS011;653;51.480;11.992;2023-12-20T03:13:38;8.27;;;6.20;;
1320;SDS011;653;51.480;11.992;2023-12-20T03:16:11;9.60;;;7.20;;
1320;SDS011;653;51.480;11.992;2023-12-20T03:18:39;8.80;;;6.20;;
1320;SDS011;653;51.480;11.992;2023-12-20T03:21:06;7.43;;;5.63;;
1320;SDS011;653;51.480;11.992;2023-12-20T03:23:32;7.40;;;5.17;;
1320;SDS011;653;51.480;11.992;2023-12-20T03:25:59;8.50;;;5.50;;
1320;SDS011;653;51.480;11.992;2023-12-20T03:28:25;7.17;;;5.07;;
1320;SDS011;653;51.480;11.992;2023-12-20T03:30:52;8.73;;;6.13;;
1320;SDS011;653;51.480;11.992;2023-12-20T03:33:20;8.03;;;6.67;;
1320;SDS011;653;51.480;11.992;2023-12-20T03:35:46;8.23;;;6.13;;
1320;SDS011;653;51.480;11.992;2023-12-20T03:38:13;8.17;;;6.60;;
1320;SDS011;653;51.480;11.992;2023-12-20T03:40:40;9.50;;;6.70;;
1320;SDS011;653;51.480;11.992;2023-12-20T03:43:06;9.13;;;6.53;;
1320;SDS011;653;51.480;11.992;2023-12-20T03:45:31;10.67;;;7.60;;
1320;SDS011;653;51.480;11.992;2023-12-20T03:48:02;9.33;;;6.60;;
1320;SDS011;653;51.480;11.992;2023-12-20T03:50:29;8.37;;;6.10;;
1320;SDS011;653;51.480;11.992;2023-12-20T03:52:54;9.57;;;6.03;;
1320;SDS011;653;51.480;11.992;2023-12-20T03:55:21;8.57;;;5.67;;
1320;SDS011;653;51.480;11.992;2023-12-20T03:57:46;7.87;;;6.67;;
1320;SDS011;653;51.480;11.992;2023-12-20T04:00:13;9.53;;;7.00;;
1320;SDS011;653;51.480;11.992;2023-12-20T04:02:39;10.40;;;6.20;;
1320;SDS011;653;51.480;11.992;2023-12-20T04:05:06;8.27;;;6.10;;
1320;SDS011;653;51.480;11.992;2023-12-20T04:07:33;7.23;;;5.60;;
1320;SDS011;653;51.480;11.992;2023-12-20T04:10:02;8.37;;;6.13;;
1320;SDS011;653;51.480;11.992;2023-12-20T04:12:30;8.97;;;6.27;;
1320;SDS011;653;51.480;11.992;2023-12-20T04:14:57;8.20;;;5.70;;
1320;SDS011;653;51.480;11.992;2023-12-20T04:17:22;8.03;;;6.10;;
1320;SDS011;653;51.480;11.992;2023-12-20T04:19:48;7.27;;;4.80;;
1320;SDS011;653;51.480;11.992;2023-12-20T04:22:17;7.90;;;5.93;;
1320;SDS011;653;51.480;11.992;2023-12-20T04:24:44;8.60;;;5.53;;
1320;SDS011;653;51.480;11.992;2023-12-20T04:27:11;9.13;;;6.00;;
1320;SDS011;653;51.480;11.992;2023-12-20T04:29:38;8.60;;;6.47;;
1320;SDS011;653;51.480;11.992;2023-12-20T04:32:05;7.67;;;6.00;;
1320;SDS011;653;51.480;11.992;2023-12-20T04:34:31;9.20;;;7.37;;
1320;SDS011;653;51.480;11.992;2023-12-20T04:36:58;7.97;;;6.27;;
1320;SDS011;653;51.480;11.992;2023-12-20T04:39:25;7.03;;;5.53;;
1320;SDS011;653;51.480;11.992;2023-12-20T04:41:52;7.77;;;5.97;;
1320;SDS011;653;51.480;11.992;2023-12-20T04:44:19;8.53;;;5.10;;
1320;SDS011;653;51.480;11.992;2023-12-20T04:46:46;6.00;;;3.90;;
1320;SDS011;653;51.480;11.992;2023-12-20T04:49:13;5.70;;;4.60;;
1320;SDS011;653;51.480;11.992;2023-12-20T04:51:40;5.30;;;3.93;;
1320;SDS011;653;51.480;11.992;2023-12-20T04:54:05;6.60;;;4.83;;
1320;SDS011;653;51.480;11.992;2023-12-20T04:56:32;6.53;;;4.83;;
1320;SDS011;653;51.480;11.992;2023-12-20T04:58:58;5.33;;;4.53;;
1320;SDS011;653;51.480;11.992;2023-12-20T05:01:25;5.40;;;4.40;;
1320;SDS011;653;51.480;11.992;2023-12-20T05:03:51;7.20;;;5.20;;
1320;SDS011;653;51.480;11.992;2023-12-20T05:06:16;5.63;;;4.60;;
1320;SDS011;653;51.480;11.992;2023-12-20T05:08:43;6.67;;;4.60;;
1320;SDS011;653;51.480;11.992;2023-12-20T05:11:10;4.90;;;4.30;;
1320;SDS011;653;51.480;11.992;2023-12-20T05:13:37;7.57;;;5.17;;
1320;SDS011;653;51.480;11.992;2023-12-20T05:16:03;6.70;;;4.13;;
1320;SDS011;653;51.480;11.992;2023-12-20T05:18:30;6.30;;;4.03;;
1320;SDS011;653;51.480;11.992;2023-12-20T05:20:57;5.80;;;4.63;;
1320;SDS011;653;51.480;11.992;2023-12-20T05:23:22;4.63;;;3.53;;
1320;SDS011;653;51.480;11.992;2023-12-20T05:25:49;10.33;;;4.53;;
1320;SDS011;653;51.480;11.992;2023-12-20T05:28:15;5.30;;;3.87;;
1320;SDS011;653;51.480;11.992;2023-12-20T05:30:42;5.70;;;4.90;;
1320;SDS011;653;51.480;11.992;2023-12-20T05:33:09;5.97;;;4.57;;
1320;SDS011;653;51.480;11.992;2023-12-20T05:35:36;5.20;;;4.23;;
1320;SDS011;653;51.480;11.992;2023-12-20T05:38:03;5.43;;;4.93;;
1320;SDS011;653;51.480;11.992;2023-12-20T05:40:29;6.10;;;3.63;;
1320;SDS011;653;51.480;11.992;2023-12-20T05:42:56;5.93;;;4.23;;
1320;SDS011;653;51.480;11.992;2023-12-20T05:45:23;6.07;;;4.47;;
1320;SDS011;653;51.480;11.992;2023-12-20T05:47:49;5.27;;;4.30;;
1320;SDS011;653;51.480;11.992;2023-12-20T05:50:15;6.77;;;4.40;;
1320;SDS011;653;51.480;11.992;2023-12-20T05:52:42;6.57;;;4.57;;
1320;SDS011;653;51.480;11.992;2023-12-20T05:55:09;5.83;;;4.50;;
1320;SDS011;653;51.480;11.992;2023-12-20T05:57:35;6.50;;;4.27;;
1320;SDS011;653;51.480;11.992;2023-12-20T06:00:02;4.63;;;3.77;;
1320;SDS011;653;51.480;11.992;2023-12-20T06:02:30;6.03;;;4.50;;
1320;SDS011;653;51.480;11.992;2023-12-20T06:04:56;8.33;;;4.50;;
1320;SDS011;653;51.480;11.992;2023-12-20T06:07:22;7.13;;;4.60;;
1320;SDS011;653;51.480;11.992;2023-12-20T06:09:48;6.00;;;4.17;;
1320;SDS011;653;51.480;11.992;2023-12-20T06:12:15;5.93;;;4.57;;
1320;SDS011;653;51.480;11.992;2023-12-20T06:14:40;6.60;;;4.27;;
1320;SDS011;653;51.480;11.992;2023-12-20T06:17:07;7.23;;;4.20;;
1320;SDS011;653;51.480;11.992;2023-12-20T06:19:32;7.03;;;4.60;;
1320;SDS011;653;51.480;11.992;2023-12-20T06:21:59;8.20;;;5.13;;
1320;SDS011;653;51.480;11.992;2023-12-20T06:24:26;5.90;;;5.17;;
1320;SDS011;653;51.480;11.992;2023-12-20T06:26:53;11.43;;;5.13;;
1320;SDS011;653;51.480;11.992;2023-12-20T06:29:21;7.73;;;5.03;;
1320;SDS011;653;51.480;11.992;2023-12-20T06:31:48;7.80;;;5.00;;
1320;SDS011;653;51.480;11.992;2023-12-20T06:34:14;8.37;;;5.00;;
1320;SDS011;653;51.480;11.992;2023-12-20T06:36:40;7.47;;;5.00;;
1320;SDS011;653;51.480;11.992;2023-12-20T06:39:07;8.80;;;5.83;;
1320;SDS011;653;51.480;11.992;2023-12-20T06:41:35;5.70;;;4.63;;
1320;SDS011;653;51.480;11.992;2023-12-20T06:44:02;8.60;;;5.30;;
1320;SDS011;653;51.480;11.992;2023-12-20T06:46:29;6.60;;;4.13;;
1320;SDS011;653;51.480;11.992;2023-12-20T06:48:55;7.30;;;4.40;;
1320;SDS011;653;51.480;11.992;2023-12-20T06:51:22;4.90;;;3.50;;
1320;SDS011;653;51.480;11.992;2023-12-20T06:53:50;6.23;;;3.70;;
1320;SDS011;653;51.480;11.992;2023-12-20T06:56:18;6.97;;;4.37;;
1320;SDS011;653;51.480;11.992;2023-12-20T06:58:45;6.20;;;3.63;;
1320;SDS011;653;51.480;11.992;2023-12-20T07:01:13;5.20;;;3.50;;
1320;SDS011;653;51.480;11.992;2023-12-20T07:03:40;6.53;;;4.37;;
1320;SDS011;653;51.480;11.992;2023-12-20T07:06:06;4.20;;;3.10;;
1320;SDS011;653;51.480;11.992;2023-12-20T07:08:32;4.80;;;3.20;;
1320;SDS011;653;51.480;11.992;2023-12-20T07:10:58;5.50;;;3.40;;
1320;SDS011;653;51.480;11.992;2023-12-20T07:13:23;4.30;;;3.07;;
1320;SDS011;653;51.480;11.992;2023-12-20T07:15:51;4.53;;;3.30;;
1320;SDS011;653;51.480;11.992;2023-12-20T07:18:17;5.03;;;1.87;;
1320;SDS011;653;51.480;11.992;2023-12-20T07:20:45;3.47;;;1.67;;
1320;SDS011;653;51.480;11.992;2023-12-20T07:23:11;4.17;;;2.13;;
1320;SDS011;653;51.480;11.992;2023-12-20T07:25:37;4.90;;;2.40;;
1320;SDS011;653;51.480;11.992;2023-12-20T07:28:04;4.20;;;1.53;;
1320;SDS011;653;51.480;11.992;2023-12-20T07:30:31;5.20;;;2.70;;
1320;SDS011;653;51.480;11.992;2023-12-20T07:32:56;5.97;;;2.23;;
1320;SDS011;653;51.480;11.992;2023-12-20T07:35:23;3.67;;;1.60;;
1320;SDS011;653;51.480;11.992;2023-12-20T07:37:50;5.37;;;2.77;;
1320;SDS011;653;51.480;11.992;2023-12-20T07:40:16;3.80;;;2.47;;
1320;SDS011;653;51.480;11.992;2023-12-20T07:42:42;11.53;;;2.80;;
1320;SDS011;653;51.480;11.992;2023-12-20T07:45:09;4.53;;;2.10;;
1320;SDS011;653;51.480;11.992;2023-12-20T07:47:37;4.37;;;1.97;;
1320;SDS011;653;51.480;11.992;2023-12-20T07:50:04;3.27;;;1.87;;
1320;SDS011;653;51.480;11.992;2023-12-20T07:52:31;4.43;;;2.30;;
1320;SDS011;653;51.480;11.992;2023-12-20T07:54:57;3.30;;;1.20;;
1320;SDS011;653;51.480;11.992;2023-12-20T07:57:23;4.20;;;2.10;;
1320;SDS011;653;51.480;11.992;2023-12-20T07:59:49;5.10;;;1.50;;
1320;SDS011;653;51.480;11.992;2023-12-20T08:02:16;8.53;;;2.10;;
1320;SDS011;653;51.480;11.992;2023-12-20T08:04:42;6.30;;;2.37;;
1320;SDS011;653;51.480;11.992;2023-12-20T08:07:09;3.33;;;1.80;;
1320;SDS011;653;51.480;11.992;2023-12-20T08:09:35;3.30;;;2.03;;
1320;SDS011;653;51.480;11.992;2023-12-20T08:12:03;3.50;;;2.83;;
1320;SDS011;653;51.480;11.992;2023-12-20T08:14:29;4.47;;;2.00;;
1320;SDS011;653;51.480;11.992;2023-12-20T08:16:54;2.47;;;1.60;;
1320;SDS011;653;51.480;11.992;2023-12-20T08:19:21;3.27;;;2.40;;
1320;SDS011;653;51.480;11.992;2023-12-20T08:21:47;7.23;;;1.67;;
1320;SDS011;653;51.480;11.992;2023-12-20T08:24:13;4.03;;;1.70;;
1320;SDS011;653;51.480;11.992;2023-12-20T08:26:40;8.13;;;3.53;;
1320;SDS011;653;51.480;11.992;2023-12-20T08:29:06;3.70;;;2.13;;
1320;SDS011;653;51.480;11.992;2023-12-20T08:31:31;5.33;;;2.70;;
1320;SDS011;653;51.480;11.992;2023-12-20T08:34:00;3.00;;;1.80;;
1320;SDS011;653;51.480;11.992;2023-12-20T08:36:27;5.50;;;2.27;;
1320;SDS011;653;51.480;11.992;2023-12-20T08:38:52;3.83;;;1.87;;
1320;SDS011;653;51.480;11.992;2023-12-20T08:41:19;2.93;;;1.70;;
1320;SDS011;653;51.480;11.992;2023-12-20T08:43:45;3.10;;;1.50;;
1320;SDS011;653;51.480;11.992;2023-12-20T08:46:11;4.10;;;2.50;;
1320;SDS011;653;51.480;11.992;2023-12-20T08:48:38;7.03;;;2.90;;
1320;SDS011;653;51.480;11.992;2023-12-20T08:51:05;10.77;;;1.77;;
1320;SDS011;653;51.480;11.992;2023-12-20T08:53:35;4.50;;;2.07;;
1320;SDS011;653;51.480;11.992;2023-12-20T08:56:03;5.00;;;2.10;;
1320;SDS011;653;51.480;11.992;2023-12-20T08:58:30;3.87;;;2.10;;
1320;SDS011;653;51.480;11.992;2023-12-20T09:00:56;5.37;;;1.70;;
1320;SDS011;653;51.480;11.992;2023-12-20T09:03:22;4.30;;;2.00;;
1320;SDS011;653;51.480;11.992;2023-12-20T09:05:48;6.20;;;2.20;;
1320;SDS011;653;51.480;11.992;2023-12-20T09:08:14;7.57;;;2.20;;
1320;SDS011;653;51.480;11.992;2023-12-20T09:10:40;4.30;;;2.30;;
1320;SDS011;653;51.480;11.992;2023-12-20T09:13:06;2.23;;;1.67;;
1320;SDS011;653;51.480;11.992;2023-12-20T09:15:34;5.73;;;2.47;;
1320;SDS011;653;51.480;11.992;2023-12-20T09:18:00;2.80;;;1.93;;
1320;SDS011;653;51.480;11.992;2023-12-20T09:20:27;4.23;;;1.60;;
1320;SDS011;653;51.480;11.992;2023-12-20T09:22:54;3.63;;;1.70;;
1320;SDS011;653;51.480;11.992;2023-12-20T09:25:21;3.50;;;2.07;;
1320;SDS011;653;51.480;11.992;2023-12-20T09:27:49;4.23;;;2.20;;
1320;SDS011;653;51.480;11.992;2023-12-20T09:30:16;6.67;;;2.73;;
1320;SDS011;653;51.480;11.992;2023-12-20T09:32:43;4.23;;;2.07;;
1320;SDS011;653;51.480;11.992;2023-12-20T09:35:09;4.63;;;2.03;;
1320;SDS011;653;51.480;11.992;2023-12-20T09:37:35;3.60;;;2.20;;
1320;SDS011;653;51.480;11.992;2023-12-20T09:40:02;3.87;;;1.90;;
1320;SDS011;653;51.480;11.992;2023-12-20T09:43:03;3.17;;;2.43;;
1320;SDS011;653;51.480;11.992;2023-12-20T09:45:25;4.77;;;2.50;;
1320;SDS011;653;51.480;11.992;2023-12-20T09:47:55;6.23;;;2.47;;
1320;SDS011;653;51.480;11.992;2023-12-20T09:50:23;5.00;;;2.47;;
1320;SDS011;653;51.480;11.992;2023-12-20T09:52:49;10.13;;;2.80;;
1320;SDS011;653;51.480;11.992;2023-12-20T09:55:20;5.90;;;2.93;;
1320;SDS011;653;51.480;11.992;2023-12-20T09:57:47;6.27;;;2.37;;
1320;SDS011;653;51.480;11.992;2023-12-20T10:00:14;9.70;;;4.93;;
1320;SDS011;653;51.480;11.992;2023-12-20T10:02:45;8.00;;;3.37;;
1320;SDS011;653;51.480;11.992;2023-12-20T10:05:16;3.27;;;2.30;;
1320;SDS011;653;51.480;11.992;2023-12-20T10:07:44;4.57;;;2.30;;
1320;SDS011;653;51.480;11.992;2023-12-20T10:10:12;4.03;;;2.50;;
1320;SDS011;653;51.480;11.992;2023-12-20T10:12:40;4.17;;;2.70;;
1320;SDS011;653;51.480;11.992;2023-12-20T10:15:07;5.30;;;2.53;;
1320;SDS011;653;51.480;11.992;2023-12-20T10:17:34;6.73;;;3.23;;
1320;SDS011;653;51.480;11.992;2023-12-20T10:20:00;3.70;;;2.10;;
1320;SDS011;653;51.480;11.992;2023-12-20T10:22:26;4.80;;;2.50;;
1320;SDS011;653;51.480;11.992;2023-12-20T10:24:52;6.70;;;3.13;;
1320;SDS011;653;51.480;11.992;2023-12-20T10:27:18;6.57;;;2.70;;
1320;SDS011;653;51.480;11.992;2023-12-20T10:29:48;7.60;;;3.00;;
1320;SDS011;653;51.480;11.992;2023-12-20T10:32:27;5.50;;;2.83;;
1320;SDS011;653;51.480;11.992;2023-12-20T10:34:53;5.53;;;3.63;;
1320;SDS011;653;51.480;11.992;2023-12-20T10:37:20;6.83;;;3.20;;
1320;SDS011;653;51.480;11.992;2023-12-20T10:39:48;6.10;;;3.73;;
1320;SDS011;653;51.480;11.992;2023-12-20T10:42:17;2.90;;;2.47;;
1320;SDS011;653;51.480;11.992;2023-12-20T10:44:46;4.40;;;3.10;;
1320;SDS011;653;51.480;11.992;2023-12-20T10:47:13;5.67;;;3.43;;
1320;SDS011;653;51.480;11.992;2023-12-20T10:49:41;5.87;;;2.30;;
1320;SDS011;653;51.480;11.992;2023-12-20T10:52:11;8.53;;;2.93;;
1320;SDS011;653;51.480;11.992;2023-12-20T10:54:40;3.87;;;2.03;;
1320;SDS011;653;51.480;11.992;2023-12-20T10:57:10;5.93;;;3.20;;
1320;SDS011;653;51.480;11.992;2023-12-20T10:59:38;3.07;;;2.60;;
1320;SDS011;653;51.480;11.992;2023-12-20T11:02:06;3.93;;;3.10;;
1320;SDS011;653;51.480;11.992;2023-12-20T11:04:40;6.77;;;1.97;;
1320;SDS011;653;51.480;11.992;2023-12-20T11:10:16;8.50;;;2.67;;
1320;SDS011;653;51.480;11.992;2023-12-20T11:12:52;5.73;;;2.70;;
1320;SDS011;653;51.480;11.992;2023-12-20T11:15:21;6.70;;;2.70;;
1320;SDS011;653;51.480;11.992;2023-12-20T11:17:54;4.80;;;2.27;;
1320;SDS011;653;51.480;11.992;2023-12-20T11:20:23;5.77;;;3.50;;
1320;SDS011;653;51.480;11.992;2023-12-20T11:22:52;5.13;;;2.50;;
1320;SDS011;653;51.480;11.992;2023-12-20T11:25:20;3.80;;;2.23;;
1320;SDS011;653;51.480;11.992;2023-12-20T11:28:06;8.83;;;2.60;;
1320;SDS011;653;51.480;11.992;2023-12-20T11:30:47;4.57;;;2.37;;
1320;SDS011;653;51.480;11.992;2023-12-20T11:33:15;4.53;;;2.10;;
1320;SDS011;653;51.480;11.992;2023-12-20T11:35:42;3.37;;;2.20;;
1320;SDS011;653;51.480;11.992;2023-12-20T11:38:11;5.00;;;2.10;;
1320;SDS011;653;51.480;11.992;2023-12-20T11:40:37;5.20;;;2.23;;
1320;SDS011;653;51.480;11.992;2023-12-20T11:43:03;11.53;;;3.77;;
1320;SDS011;653;51.480;11.992;2023-12-20T11:45:30;8.20;;;2.70;;
1320;SDS011;653;51.480;11.992;2023-12-20T11:47:57;3.70;;;2.70;;
1320;SDS011;653;51.480;11.992;2023-12-20T11:50:27;4.83;;;2.57;;
1320;SDS011;653;51.480;11.992;2023-12-20T11:53:00;4.60;;;1.90;;
1320;SDS011;653;51.480;11.992;2023-12-20T11:56:42;7.03;;;3.57;;
1320;SDS011;653;51.480;11.992;2023-12-20T11:59:08;4.43;;;2.50;;
1320;SDS011;653;51.480;11.992;2023-12-20T12:01:33;5.47;;;3.10;;
1320;SDS011;653;51.480;11.992;2023-12-20T12:04:06;6.30;;;2.43;;
1320;SDS011;653;51.480;11.992;2023-12-20T12:06:32;9.23;;;2.43;;
1320;SDS011;653;51.480;11.992;2023-12-20T12:08:57;7.90;;;3.30;;
1320;SDS011;653;51.480;11.992;2023-12-20T12:11:23;5.33;;;2.30;;
1320;SDS011;653;51.480;11.992;2023-12-20T12:13:48;7.63;;;3.00;;
1320;SDS011;653;51.480;11.992;2023-12-20T12:16:18;6.00;;;2.13;;
1320;SDS011;653;51.480;11.992;2023-12-20T12:18:44;4.33;;;1.97;;
1320;SDS011;653;51.480;11.992;2023-12-20T12:21:10;9.23;;;2.30;;
1320;SDS011;653;51.480;11.992;2023-12-20T12:23:36;5.97;;;2.27;;
1320;SDS011;653;51.480;11.992;2023-12-20T12:26:03;7.33;;;2.53;;
1320;SDS011;653;51.480;11.992;2023-12-20T12:28:29;5.93;;;3.10;;
1320;SDS011;653;51.480;11.992;2023-12-20T12:30:57;4.87;;;2.57;;
1320;SDS011;653;51.480;11.992;2023-12-20T12:33:24;3.77;;;2.43;;
1320;SDS011;653;51.480;11.992;2023-12-20T12:35:51;3.83;;;2.20;;
1320;SDS011;653;51.480;11.992;2023-12-20T12:38:16;4.67;;;2.30;;
1320;SDS011;653;51.480;11.992;2023-12-20T12:40:45;6.20;;;2.23;;
1320;SDS011;653;51.480;11.992;2023-12-20T12:43:11;6.60;;;2.33;;
1320;SDS011;653;51.480;11.992;2023-12-20T12:45:37;5.93;;;2.90;;
1320;SDS011;653;51.480;11.992;2023-12-20T12:48:03;6.10;;;2.50;;
1320;SDS011;653;51.480;11.992;2023-12-20T12:50:30;5.07;;;2.50;;
1320;SDS011;653;51.480;11.992;2023-12-20T12:52:56;4.43;;;2.20;;
1320;SDS011;653;51.480;11.992;2023-12-20T12:55:21;7.83;;;2.20;;
1320;SDS011;653;51.480;11.992;2023-12-20T12:57:47;3.03;;;2.50;;
1320;SDS011;653;51.480;11.992;2023-12-20T13:00:12;3.00;;;2.50;;
1320;SDS011;653;51.480;11.992;2023-12-20T13:02:38;2.30;;;1.60;;
1320;SDS011;653;51.480;11.992;2023-12-20T13:05:07;3.67;;;1.90;;
1320;SDS011;653;51.480;11.992;2023-12-20T13:07:33;7.00;;;2.37;;
1320;SDS011;653;51.480;11.992;2023-12-20T13:09:59;6.03;;;2.50;;
1320;SDS011;653;51.480;11.992;2023-12-20T13:12:25;3.33;;;2.40;;
1320;SDS011;653;51.480;11.992;2023-12-20T13:14:50;4.73;;;1.67;;
1320;SDS011;653;51.480;11.992;2023-12-20T13:17:16;6.20;;;3.07;;
1320;SDS011;653;51.480;11.992;2023-12-20T13:19:42;2.20;;;1.80;;
1320;SDS011;653;51.480;11.992;2023-12-20T13:22:07;7.53;;;2.57;;
1320;SDS011;653;51.480;11.992;2023-12-20T13:24:33;2.67;;;1.80;;
1320;SDS011;653;51.480;11.992;2023-12-20T13:26:59;7.30;;;3.27;;
1320;SDS011;653;51.480;11.992;2023-12-20T13:29:24;3.90;;;2.43;;
1320;SDS011;653;51.480;11.992;2023-12-20T13:31:52;5.63;;;1.80;;
1320;SDS011;653;51.480;11.992;2023-12-20T13:34:18;7.47;;;2.47;;
1320;SDS011;653;51.480;11.992;2023-12-20T13:36:44;4.50;;;2.53;;
1320;SDS011;653;51.480;11.992;2023-12-20T13:39:14;7.80;;;3.93;;
1320;SDS011;653;51.480;11.992;2023-12-20T13:41:40;4.13;;;2.50;;
1320;SDS011;653;51.480;11.992;2023-12-20T13:44:06;4.90;;;1.67;;
1320;SDS011;653;51.480;11.992;2023-12-20T13:46:31;4.97;;;2.73;;
1320;SDS011;653;51.480;11.992;2023-12-20T13:48:57;4.70;;;2.23;;
1320;SDS011;653;51.480;11.992;2023-12-20T13:51:22;2.53;;;1.67;;
1320;SDS011;653;51.480;11.992;2023-12-20T13:53:48;6.07;;;3.00;;
1320;SDS011;653;51.480;11.992;2023-12-20T13:56:14;3.43;;;2.47;;
1320;SDS011;653;51.480;11.992;2023-12-20T13:58:40;3.10;;;2.07;;
1320;SDS011;653;51.480;11.992;2023-12-20T14:01:07;3.57;;;1.80;;
1320;SDS011;653;51.480;11.992;2023-12-20T14:03:33;4.00;;;2.33;;
1320;SDS011;653;51.480;11.992;2023-12-20T14:05:59;4.10;;;2.30;;
1320;SDS011;653;51.480;11.992;2023-12-20T14:08:25;4.07;;;2.23;;
1320;SDS011;653;51.480;11.992;2023-12-20T14:10:52;3.20;;;2.13;;
1320;SDS011;653;51.480;11.992;2023-12-20T14:13:17;4.80;;;2.00;;
1320;SDS011;653;51.480;11.992;2023-12-20T14:15:43;4.43;;;2.20;;
1320;SDS011;653;51.480;11.992;2023-12-20T14:18:09;4.10;;;2.07;;
1320;SDS011;653;51.480;11.992;2023-12-20T14:20:35;2.87;;;2.47;;
1320;SDS011;653;51.480;11.992;2023-12-20T14:23:04;5.13;;;2.23;;
1320;SDS011;653;51.480;11.992;2023-12-20T14:25:29;5.20;;;2.57;;
1320;SDS011;653;51.480;11.992;2023-12-20T14:27:56;2.30;;;1.80;;
1320;SDS011;653;51.480;11.992;2023-12-20T14:30:22;3.57;;;1.77;;
1320;SDS011;653;51.480;11.992;2023-12-20T14:32:50;3.07;;;1.53;;
1320;SDS011;653;51.480;11.992;2023-12-20T14:35:16;3.30;;;1.70;;
1320;SDS011;653;51.480;11.992;2023-12-20T14:37:41;4.83;;;1.93;;
1320;SDS011;653;51.480;11.992;2023-12-20T14:40:07;6.10;;;1.73;;
1320;SDS011;653;51.480;11.992;2023-12-20T14:42:36;3.87;;;2.23;;
1320;SDS011;653;51.480;11.992;2023-12-20T14:45:02;2.43;;;1.87;;
1320;SDS011;653;51.480;11.992;2023-12-20T14:47:28;2.50;;;2.10;;
1320;SDS011;653;51.480;11.992;2023-12-20T14:49:53;3.50;;;2.03;;
1320;SDS011;653;51.480;11.992;2023-12-20T14:52:18;2.20;;;1.43;;
1320;SDS011;653;51.480;11.992;2023-12-20T14:54:44;4.60;;;2.03;;
1320;SDS011;653;51.480;11.992;2023-12-20T14:57:10;3.13;;;2.20;;
1320;SDS011;653;51.480;11.992;2023-12-20T14:59:35;3.53;;;2.27;;
1320;SDS011;653;51.480;11.992;2023-12-20T15:02:01;4.93;;;2.03;;
1320;SDS011;653;51.480;11.992;2023-12-20T15:04:31;5.93;;;1.80;;
1320;SDS011;653;51.480;11.992;2023-12-20T15:06:56;4.40;;;2.20;;
1320;SDS011;653;51.480;11.992;2023-12-20T15:09:22;4.70;;;2.17;;
1320;SDS011;653;51.480;11.992;2023-12-20T15:11:50;3.87;;;1.77;;
1320;SDS011;653;51.480;11.992;2023-12-20T15:14:19;3.33;;;2.07;;
1320;SDS011;653;51.480;11.992;2023-12-20T15:16:45;2.50;;;2.00;;